Mustafa Dayi — TCZF2 — position and weather

sailwx.info

Track history (hours):
 
Tides and Currents Weather Stations Pressure Air Temp Water Temp Dewpoint Dewpoint Depression Visibility Wind Speed Wind Dir Waves Ship Positions

Mustafa Dayi

Last reported at 2015-Sep-02 09:15 UTC. Time now 2015-Sep-04 10:25 UTC.
Position N 37°46' E 025°52'.

Length 183 m; draft 7.4 m.

Type: Ship (hazmat cat D). MMSI: 271042433.

Date/timePositionNaut miles runAvg speedWind from/ knotsBaromVisibWave heightAir tempDewpointWater temp
2015-Sep-02 09:15N 37°46' E 025°52'1014.7
2015-Sep-02 08:34N 37°36' E 025°54'1414.0
2015-Sep-02 07:32N 37°24' E 026°04'1414.5
2015-Sep-02 06:32N 37°14' E 026°17'1414.2
2015-Sep-02 05:33N 37°04' E 026°30'1414.3
2015-Sep-02 04:33N 36°53' E 026°41'1514.2
2015-Sep-02 03:28N 36°41' E 026°53'1413.8
2015-Sep-02 02:27N 36°32' E 027°07'1314.7
2015-Sep-02 01:33N 36°33' E 027°23'1514.8
2015-Sep-02 00:33N 36°30' E 027°41'1514.8
2015-Sep-01 23:33N 36°30' E 027°60'1414.2
2015-Sep-01 22:33N 36°30' E 028°18'1813.8
2015-Sep-01 21:16N 36°23' E 028°37'1113.5
2015-Sep-01 20:25N 36°18' E 028°50'1513.7
2015-Sep-01 19:20N 36°13' E 029°08'  
2015-Aug-29 21:05N 33°55' E 035°14'712.9
2015-Aug-29 20:33N 33°51' E 035°07'1413.6
2015-Aug-29 19:33N 33°41' E 034°56'1413.4
2015-Aug-29 18:33N 33°32' E 034°45'1813.5
2015-Aug-29 17:13N 33°19' E 034°30'913.5
2015-Aug-29 16:33N 33°12' E 034°23'1413.5
2015-Aug-29 15:33N 33°02' E 034°12'1414.0
2015-Aug-29 14:33N 32°52' E 033°60'1514.5
2015-Aug-29 13:33N 32°42' E 033°48'1614.7
2015-Aug-29 12:27N 32°30' E 033°35'1314.4
2015-Aug-29 11:31N 32°20' E 033°24'1414.3
2015-Aug-29 10:32N 32°10' E 033°13'1414.1
2015-Aug-29 09:32N 32°00' E 033°01'1313.9
2015-Aug-29 08:33N 31°51' E 032°50'1414.0
2015-Aug-29 07:33N 31°42' E 032°36'32 2.8
2015-Aug-28 20:11N 31°14' E 032°18'0 0.0
2015-Aug-28 18:17N 31°14' E 032°18'0 0.0
2015-Aug-28 17:23N 31°14' E 032°18'0 0.0
2015-Aug-28 16:10N 31°14' E 032°18'0 0.0
2015-Aug-28 15:32N 31°14' E 032°18'4 2.5
2015-Aug-28 14:04N 31°17' E 032°20'4 6.3
2015-Aug-28 13:22N 31°22' E 032°21'1012.9
2015-Aug-28 12:33N 31°31' E 032°15'2914.2
2015-Aug-28 10:31N 31°48' E 031°47'1515.1
2015-Aug-28 09:30N 31°50' E 031°30'4114.0
2015-Aug-28 06:34N 31°56' E 030°42'1413.5
2015-Aug-28 05:33N 31°52' E 030°26'1414.1
2015-Aug-28 04:33N 31°43' E 030°13'1514.3
2015-Aug-28 03:30N 31°33' E 029°60'1313.8
2015-Aug-28 02:33N 31°22' E 029°51'1212.2
2015-Aug-28 01:33N 31°11' E 029°46'5 0.8
2015-Aug-27 18:32N 31°11' E 029°52'0 0.0
2015-Aug-27 14:09N 31°11' E 029°52'  
Track history (hours):
 
Tides and Currents Weather Stations Pressure Air Temp Water Temp Dewpoint Dewpoint Depression Visibility Wind Speed Wind Dir Waves Ship Positions

Mustafa Dayi

Last reported at 2015-Sep-02 09:15 UTC. Time now 2015-Sep-04 10:25 UTC.
Position N 37°46' E 025°52'.

Length 183 m; draft 7.4 m.

Type: Ship (hazmat cat D). MMSI: 271042433.

Date/timePositionNaut miles runAvg speedWind from/ knotsBaromVisibWave heightAir tempDewpointWater temp
2015-Sep-02 09:15N 37°46' E 025°52'1014.7
2015-Sep-02 08:34N 37°36' E 025°54'1414.0
2015-Sep-02 07:32N 37°24' E 026°04'1414.5
2015-Sep-02 06:32N 37°14' E 026°17'1414.2
2015-Sep-02 05:33N 37°04' E 026°30'1414.3
2015-Sep-02 04:33N 36°53' E 026°41'1514.2
2015-Sep-02 03:28N 36°41' E 026°53'1413.8
2015-Sep-02 02:27N 36°32' E 027°07'1314.7
2015-Sep-02 01:33N 36°33' E 027°23'1514.8
2015-Sep-02 00:33N 36°30' E 027°41'1514.8
2015-Sep-01 23:33N 36°30' E 027°60'1414.2
2015-Sep-01 22:33N 36°30' E 028°18'1813.8
2015-Sep-01 21:16N 36°23' E 028°37'1113.5
2015-Sep-01 20:25N 36°18' E 028°50'1513.7
2015-Sep-01 19:20N 36°13' E 029°08'  
2015-Aug-29 21:05N 33°55' E 035°14'712.9
2015-Aug-29 20:33N 33°51' E 035°07'1413.6
2015-Aug-29 19:33N 33°41' E 034°56'1413.4
2015-Aug-29 18:33N 33°32' E 034°45'1813.5
2015-Aug-29 17:13N 33°19' E 034°30'913.5
2015-Aug-29 16:33N 33°12' E 034°23'1413.5
2015-Aug-29 15:33N 33°02' E 034°12'1414.0
2015-Aug-29 14:33N 32°52' E 033°60'1514.5
2015-Aug-29 13:33N 32°42' E 033°48'1614.7
2015-Aug-29 12:27N 32°30' E 033°35'1314.4
2015-Aug-29 11:31N 32°20' E 033°24'1414.3
2015-Aug-29 10:32N 32°10' E 033°13'1414.1
2015-Aug-29 09:32N 32°00' E 033°01'1313.9
2015-Aug-29 08:33N 31°51' E 032°50'1414.0
2015-Aug-29 07:33N 31°42' E 032°36'32 2.8
2015-Aug-28 20:11N 31°14' E 032°18'0 0.0
2015-Aug-28 18:17N 31°14' E 032°18'0 0.0
2015-Aug-28 17:23N 31°14' E 032°18'0 0.0
2015-Aug-28 16:10N 31°14' E 032°18'0 0.0
2015-Aug-28 15:32N 31°14' E 032°18'4 2.5
2015-Aug-28 14:04N 31°17' E 032°20'4 6.3
2015-Aug-28 13:22N 31°22' E 032°21'1012.9
2015-Aug-28 12:33N 31°31' E 032°15'2914.2
2015-Aug-28 10:31N 31°48' E 031°47'1515.1
2015-Aug-28 09:30N 31°50' E 031°30'4114.0
2015-Aug-28 06:34N 31°56' E 030°42'1413.5
2015-Aug-28 05:33N 31°52' E 030°26'1414.1
2015-Aug-28 04:33N 31°43' E 030°13'1514.3
2015-Aug-28 03:30N 31°33' E 029°60'1313.8
2015-Aug-28 02:33N 31°22' E 029°51'1212.2
2015-Aug-28 01:33N 31°11' E 029°46'5 0.8
2015-Aug-27 18:32N 31°11' E 029°52'0 0.0
2015-Aug-27 14:09N 31°11' E 029°52'  

Dump ship's entire track history